sensor_id;sensor_type;location;lat;lon;timestamp;P1;durP1;ratioP1;P2;durP2;ratioP2
67037;SDS011;53940;53.204;6.590;2024-02-04T00:00:44;0.82;;;0.40;;
67037;SDS011;53940;53.204;6.590;2024-02-04T00:03:44;1.50;;;0.40;;
67037;SDS011;53940;53.204;6.590;2024-02-04T00:06:45;0.57;;;0.30;;
67037;SDS011;53940;53.204;6.590;2024-02-04T00:09:45;0.50;;;0.30;;
67037;SDS011;53940;53.204;6.590;2024-02-04T00:12:46;0.80;;;0.30;;
67037;SDS011;53940;53.204;6.590;2024-02-04T00:15:46;1.00;;;0.40;;
67037;SDS011;53940;53.204;6.590;2024-02-04T00:18:47;1.45;;;0.45;;
67037;SDS011;53940;53.204;6.590;2024-02-04T00:21:47;1.17;;;0.45;;
67037;SDS011;53940;53.204;6.590;2024-02-04T00:24:48;1.77;;;0.30;;
67037;SDS011;53940;53.204;6.590;2024-02-04T00:27:48;0.85;;;0.30;;
67037;SDS011;53940;53.204;6.590;2024-02-04T00:30:48;1.10;;;0.35;;
67037;SDS011;53940;53.204;6.590;2024-02-04T00:33:50;0.32;;;0.30;;
67037;SDS011;53940;53.204;6.590;2024-02-04T00:36:50;0.57;;;0.30;;
67037;SDS011;53940;53.204;6.590;2024-02-04T00:39:50;0.63;;;0.30;;
67037;SDS011;53940;53.204;6.590;2024-02-04T00:42:51;0.85;;;0.30;;
67037;SDS011;53940;53.204;6.590;2024-02-04T00:45:51;0.63;;;0.30;;
67037;SDS011;53940;53.204;6.590;2024-02-04T00:48:52;1.23;;;0.30;;
67037;SDS011;53940;53.204;6.590;2024-02-04T00:51:52;0.45;;;0.30;;
67037;SDS011;53940;53.204;6.590;2024-02-04T00:54:53;0.52;;;0.30;;
67037;SDS011;53940;53.204;6.590;2024-02-04T00:57:53;0.75;;;0.28;;
67037;SDS011;53940;53.204;6.590;2024-02-04T01:00:55;1.17;;;0.50;;
67037;SDS011;53940;53.204;6.590;2024-02-04T01:03:56;0.52;;;0.30;;
67037;SDS011;53940;53.204;6.590;2024-02-04T01:06:56;0.60;;;0.30;;
67037;SDS011;53940;53.204;6.590;2024-02-04T01:09:56;0.98;;;0.30;;
67037;SDS011;53940;53.204;6.590;2024-02-04T01:12:57;0.70;;;0.30;;
67037;SDS011;53940;53.204;6.590;2024-02-04T01:15:57;0.75;;;0.35;;
67037;SDS011;53940;53.204;6.590;2024-02-04T01:18:57;0.70;;;0.50;;
67037;SDS011;53940;53.204;6.590;2024-02-04T01:21:58;1.05;;;0.40;;
67037;SDS011;53940;53.204;6.590;2024-02-04T01:24:58;0.63;;;0.30;;
67037;SDS011;53940;53.204;6.590;2024-02-04T01:27:58;0.60;;;0.30;;
67037;SDS011;53940;53.204;6.590;2024-02-04T01:30:59;0.88;;;0.40;;
67037;SDS011;53940;53.204;6.590;2024-02-04T01:33:59;1.50;;;0.47;;
67037;SDS011;53940;53.204;6.590;2024-02-04T01:37:00;1.88;;;0.40;;
67037;SDS011;53940;53.204;6.590;2024-02-04T01:40:00;1.10;;;0.40;;
67037;SDS011;53940;53.204;6.590;2024-02-04T01:43:00;0.75;;;0.38;;
67037;SDS011;53940;53.204;6.590;2024-02-04T01:46:01;0.70;;;0.30;;
67037;SDS011;53940;53.204;6.590;2024-02-04T01:49:01;1.02;;;0.40;;
67037;SDS011;53940;53.204;6.590;2024-02-04T01:52:02;0.65;;;0.40;;
67037;SDS011;53940;53.204;6.590;2024-02-04T01:55:04;1.30;;;0.30;;
67037;SDS011;53940;53.204;6.590;2024-02-04T01:58:05;1.58;;;0.38;;
67037;SDS011;53940;53.204;6.590;2024-02-04T02:01:06;0.80;;;0.30;;
67037;SDS011;53940;53.204;6.590;2024-02-04T02:04:07;0.82;;;0.40;;
67037;SDS011;53940;53.204;6.590;2024-02-04T02:07:07;1.45;;;0.40;;
67037;SDS011;53940;53.204;6.590;2024-02-04T02:10:08;1.42;;;0.50;;
67037;SDS011;53940;53.204;6.590;2024-02-04T02:13:44;1.92;;;0.50;;
67037;SDS011;53940;53.204;6.590;2024-02-04T02:16:38;0.80;;;0.40;;
67037;SDS011;53940;53.204;6.590;2024-02-04T02:19:59;0.93;;;0.40;;
67037;SDS011;53940;53.204;6.590;2024-02-04T02:23:19;1.00;;;0.40;;
67037;SDS011;53940;53.204;6.590;2024-02-04T02:26:22;0.80;;;0.40;;
67037;SDS011;53940;53.204;6.590;2024-02-04T02:29:23;1.92;;;0.43;;
67037;SDS011;53940;53.204;6.590;2024-02-04T02:32:23;1.05;;;0.40;;
67037;SDS011;53940;53.204;6.590;2024-02-04T02:35:24;1.30;;;0.50;;
67037;SDS011;53940;53.204;6.590;2024-02-04T02:38:26;0.75;;;0.40;;
67037;SDS011;53940;53.204;6.590;2024-02-04T02:41:33;1.73;;;0.50;;
67037;SDS011;53940;53.204;6.590;2024-02-04T02:44:35;1.10;;;0.40;;
67037;SDS011;53940;53.204;6.590;2024-02-04T02:47:39;1.48;;;0.40;;
67037;SDS011;53940;53.204;6.590;2024-02-04T02:50:41;1.60;;;0.50;;
67037;SDS011;53940;53.204;6.590;2024-02-04T02:53:42;1.10;;;0.35;;
67037;SDS011;53940;53.204;6.590;2024-02-04T02:56:42;1.38;;;0.45;;
67037;SDS011;53940;53.204;6.590;2024-02-04T02:59:42;0.55;;;0.30;;
67037;SDS011;53940;53.204;6.590;2024-02-04T03:02:43;2.03;;;0.70;;
67037;SDS011;53940;53.204;6.590;2024-02-04T03:05:43;1.13;;;0.55;;
67037;SDS011;53940;53.204;6.590;2024-02-04T03:08:43;0.70;;;0.40;;
67037;SDS011;53940;53.204;6.590;2024-02-04T03:11:44;0.98;;;0.45;;
67037;SDS011;53940;53.204;6.590;2024-02-04T03:14:46;1.60;;;0.50;;
67037;SDS011;53940;53.204;6.590;2024-02-04T03:17:46;1.95;;;0.40;;
67037;SDS011;53940;53.204;6.590;2024-02-04T03:20:46;1.35;;;0.50;;
67037;SDS011;53940;53.204;6.590;2024-02-04T03:23:46;1.73;;;0.50;;
67037;SDS011;53940;53.204;6.590;2024-02-04T03:26:47;1.27;;;0.40;;
67037;SDS011;53940;53.204;6.590;2024-02-04T03:29:47;2.00;;;0.60;;
67037;SDS011;53940;53.204;6.590;2024-02-04T03:32:48;2.08;;;0.70;;
67037;SDS011;53940;53.204;6.590;2024-02-04T03:35:48;0.77;;;0.40;;
67037;SDS011;53940;53.204;6.590;2024-02-04T03:38:49;1.40;;;0.45;;
67037;SDS011;53940;53.204;6.590;2024-02-04T03:41:50;1.50;;;0.60;;
67037;SDS011;53940;53.204;6.590;2024-02-04T03:44:50;0.60;;;0.40;;
67037;SDS011;53940;53.204;6.590;2024-02-04T03:47:51;0.60;;;0.30;;
67037;SDS011;53940;53.204;6.590;2024-02-04T03:50:51;1.92;;;0.50;;
67037;SDS011;53940;53.204;6.590;2024-02-04T03:53:51;1.45;;;0.60;;
67037;SDS011;53940;53.204;6.590;2024-02-04T03:56:52;1.15;;;0.60;;
67037;SDS011;53940;53.204;6.590;2024-02-04T03:59:52;1.67;;;0.60;;
67037;SDS011;53940;53.204;6.590;2024-02-04T04:02:52;1.00;;;0.43;;
67037;SDS011;53940;53.204;6.590;2024-02-04T04:05:53;1.65;;;0.50;;
67037;SDS011;53940;53.204;6.590;2024-02-04T04:08:54;1.00;;;0.50;;
67037;SDS011;53940;53.204;6.590;2024-02-04T04:11:54;1.60;;;0.55;;
67037;SDS011;53940;53.204;6.590;2024-02-04T04:14:55;2.58;;;0.60;;
67037;SDS011;53940;53.204;6.590;2024-02-04T04:17:55;1.63;;;0.43;;
67037;SDS011;53940;53.204;6.590;2024-02-04T04:20:55;1.13;;;0.40;;
67037;SDS011;53940;53.204;6.590;2024-02-04T04:23:56;0.70;;;0.50;;
67037;SDS011;53940;53.204;6.590;2024-02-04T04:26:56;1.23;;;0.50;;
67037;SDS011;53940;53.204;6.590;2024-02-04T04:29:56;1.63;;;0.40;;
67037;SDS011;53940;53.204;6.590;2024-02-04T04:32:57;1.02;;;0.40;;
67037;SDS011;53940;53.204;6.590;2024-02-04T04:35:58;1.50;;;0.47;;
67037;SDS011;53940;53.204;6.590;2024-02-04T04:38:59;1.58;;;0.57;;
67037;SDS011;53940;53.204;6.590;2024-02-04T04:41:59;1.42;;;0.50;;
67037;SDS011;53940;53.204;6.590;2024-02-04T04:44:59;1.73;;;0.45;;
67037;SDS011;53940;53.204;6.590;2024-02-04T04:48:00;1.30;;;0.40;;
67037;SDS011;53940;53.204;6.590;2024-02-04T04:51:00;2.17;;;0.63;;
67037;SDS011;53940;53.204;6.590;2024-02-04T04:54:00;1.38;;;0.52;;
67037;SDS011;53940;53.204;6.590;2024-02-04T04:57:01;1.98;;;0.60;;
67037;SDS011;53940;53.204;6.590;2024-02-04T05:00:01;1.88;;;0.40;;
67037;SDS011;53940;53.204;6.590;2024-02-04T05:03:06;1.58;;;0.52;;
67037;SDS011;53940;53.204;6.590;2024-02-04T05:06:06;1.65;;;0.70;;
67037;SDS011;53940;53.204;6.590;2024-02-04T05:09:07;1.25;;;0.40;;
67037;SDS011;53940;53.204;6.590;2024-02-04T05:12:08;0.90;;;0.50;;
67037;SDS011;53940;53.204;6.590;2024-02-04T05:15:08;1.15;;;0.40;;
67037;SDS011;53940;53.204;6.590;2024-02-04T05:18:09;1.25;;;0.50;;
67037;SDS011;53940;53.204;6.590;2024-02-04T05:21:09;2.15;;;0.52;;
67037;SDS011;53940;53.204;6.590;2024-02-04T05:24:10;1.95;;;0.50;;
67037;SDS011;53940;53.204;6.590;2024-02-04T05:27:10;1.65;;;0.57;;
67037;SDS011;53940;53.204;6.590;2024-02-04T05:30:11;1.77;;;0.88;;
67037;SDS011;53940;53.204;6.590;2024-02-04T05:33:15;1.30;;;0.50;;
67037;SDS011;53940;53.204;6.590;2024-02-04T05:36:15;1.38;;;0.60;;
67037;SDS011;53940;53.204;6.590;2024-02-04T05:39:16;1.25;;;0.50;;
67037;SDS011;53940;53.204;6.590;2024-02-04T05:42:17;0.80;;;0.40;;
67037;SDS011;53940;53.204;6.590;2024-02-04T05:45:17;1.45;;;0.50;;
67037;SDS011;53940;53.204;6.590;2024-02-04T05:48:17;1.70;;;0.63;;
67037;SDS011;53940;53.204;6.590;2024-02-04T05:51:18;1.45;;;0.60;;
67037;SDS011;53940;53.204;6.590;2024-02-04T05:54:18;1.20;;;0.40;;
67037;SDS011;53940;53.204;6.590;2024-02-04T05:57:18;1.55;;;0.52;;
67037;SDS011;53940;53.204;6.590;2024-02-04T06:00:20;1.77;;;0.50;;
67037;SDS011;53940;53.204;6.590;2024-02-04T06:03:21;1.65;;;0.50;;
67037;SDS011;53940;53.204;6.590;2024-02-04T06:06:21;1.00;;;0.43;;
67037;SDS011;53940;53.204;6.590;2024-02-04T06:09:21;1.88;;;0.63;;
67037;SDS011;53940;53.204;6.590;2024-02-04T06:12:22;1.52;;;0.50;;
67037;SDS011;53940;53.204;6.590;2024-02-04T06:15:22;0.90;;;0.43;;
67037;SDS011;53940;53.204;6.590;2024-02-04T06:18:22;1.55;;;0.60;;
67037;SDS011;53940;53.204;6.590;2024-02-04T06:21:24;1.80;;;0.73;;
67037;SDS011;53940;53.204;6.590;2024-02-04T06:24:24;2.05;;;0.70;;
67037;SDS011;53940;53.204;6.590;2024-02-04T06:27:24;1.77;;;0.50;;
67037;SDS011;53940;53.204;6.590;2024-02-04T06:30:25;1.10;;;0.52;;
67037;SDS011;53940;53.204;6.590;2024-02-04T06:33:25;1.33;;;0.50;;
67037;SDS011;53940;53.204;6.590;2024-02-04T06:36:25;1.60;;;0.50;;
67037;SDS011;53940;53.204;6.590;2024-02-04T06:39:26;2.17;;;0.70;;
67037;SDS011;53940;53.204;6.590;2024-02-04T06:42:26;2.78;;;0.50;;
67037;SDS011;53940;53.204;6.590;2024-02-04T06:45:26;1.33;;;0.60;;
67037;SDS011;53940;53.204;6.590;2024-02-04T06:48:27;1.45;;;0.43;;
67037;SDS011;53940;53.204;6.590;2024-02-04T06:51:27;1.55;;;0.57;;
67037;SDS011;53940;53.204;6.590;2024-02-04T06:54:27;2.30;;;0.60;;
67037;SDS011;53940;53.204;6.590;2024-02-04T06:57:28;1.42;;;0.40;;
67037;SDS011;53940;53.204;6.590;2024-02-04T07:00:28;1.85;;;0.50;;
67037;SDS011;53940;53.204;6.590;2024-02-04T07:03:28;2.10;;;0.65;;
67037;SDS011;53940;53.204;6.590;2024-02-04T07:06:29;1.67;;;0.85;;
67037;SDS011;53940;53.204;6.590;2024-02-04T07:09:29;2.38;;;0.75;;
67037;SDS011;53940;53.204;6.590;2024-02-04T07:12:30;2.28;;;0.60;;
67037;SDS011;53940;53.204;6.590;2024-02-04T07:15:30;2.25;;;0.50;;
67037;SDS011;53940;53.204;6.590;2024-02-04T07:18:30;1.23;;;0.50;;
67037;SDS011;53940;53.204;6.590;2024-02-04T07:21:31;0.90;;;0.40;;
67037;SDS011;53940;53.204;6.590;2024-02-04T07:24:31;1.85;;;0.63;;
67037;SDS011;53940;53.204;6.590;2024-02-04T07:27:32;2.05;;;0.50;;
67037;SDS011;53940;53.204;6.590;2024-02-04T07:30:33;2.17;;;0.57;;
67037;SDS011;53940;53.204;6.590;2024-02-04T07:33:33;0.98;;;0.40;;
67037;SDS011;53940;53.204;6.590;2024-02-04T07:36:33;1.15;;;0.52;;
67037;SDS011;53940;53.204;6.590;2024-02-04T07:39:34;1.17;;;0.50;;
67037;SDS011;53940;53.204;6.590;2024-02-04T07:42:34;1.52;;;0.50;;
67037;SDS011;53940;53.204;6.590;2024-02-04T07:45:34;3.65;;;0.60;;
67037;SDS011;53940;53.204;6.590;2024-02-04T07:48:35;1.08;;;0.38;;
67037;SDS011;53940;53.204;6.590;2024-02-04T07:51:35;1.73;;;0.60;;
67037;SDS011;53940;53.204;6.590;2024-02-04T07:54:37;1.30;;;0.57;;
67037;SDS011;53940;53.204;6.590;2024-02-04T07:57:37;0.80;;;0.40;;
67037;SDS011;53940;53.204;6.590;2024-02-04T08:00:38;1.70;;;0.60;;
67037;SDS011;53940;53.204;6.590;2024-02-04T08:03:38;1.08;;;0.40;;
67037;SDS011;53940;53.204;6.590;2024-02-04T08:06:40;1.23;;;0.40;;
67037;SDS011;53940;53.204;6.590;2024-02-04T08:09:40;2.38;;;0.50;;
67037;SDS011;53940;53.204;6.590;2024-02-04T08:12:40;0.82;;;0.38;;
67037;SDS011;53940;53.204;6.590;2024-02-04T08:15:41;1.00;;;0.45;;
67037;SDS011;53940;53.204;6.590;2024-02-04T08:18:41;2.03;;;0.60;;
67037;SDS011;53940;53.204;6.590;2024-02-04T08:21:42;1.15;;;0.47;;
67037;SDS011;53940;53.204;6.590;2024-02-04T08:24:42;1.45;;;0.50;;
67037;SDS011;53940;53.204;6.590;2024-02-04T08:27:42;2.63;;;0.70;;
67037;SDS011;53940;53.204;6.590;2024-02-04T08:30:43;2.75;;;0.60;;
67037;SDS011;53940;53.204;6.590;2024-02-04T08:33:43;1.05;;;0.40;;
67037;SDS011;53940;53.204;6.590;2024-02-04T08:36:44;1.75;;;0.60;;
67037;SDS011;53940;53.204;6.590;2024-02-04T08:39:44;1.13;;;0.40;;
67037;SDS011;53940;53.204;6.590;2024-02-04T08:42:44;1.80;;;0.50;;
67037;SDS011;53940;53.204;6.590;2024-02-04T08:45:45;2.45;;;0.60;;
67037;SDS011;53940;53.204;6.590;2024-02-04T08:48:45;1.38;;;0.38;;
67037;SDS011;53940;53.204;6.590;2024-02-04T08:51:45;1.73;;;0.50;;
67037;SDS011;53940;53.204;6.590;2024-02-04T08:54:45;1.38;;;0.40;;
67037;SDS011;53940;53.204;6.590;2024-02-04T08:57:46;2.28;;;0.60;;
67037;SDS011;53940;53.204;6.590;2024-02-04T09:00:48;1.23;;;0.50;;
67037;SDS011;53940;53.204;6.590;2024-02-04T09:03:48;2.25;;;0.60;;
67037;SDS011;53940;53.204;6.590;2024-02-04T09:06:49;1.60;;;0.50;;
67037;SDS011;53940;53.204;6.590;2024-02-04T09:09:49;1.02;;;0.40;;
67037;SDS011;53940;53.204;6.590;2024-02-04T09:12:50;2.30;;;0.60;;
67037;SDS011;53940;53.204;6.590;2024-02-04T09:15:50;1.23;;;0.50;;
67037;SDS011;53940;53.204;6.590;2024-02-04T09:18:50;1.10;;;0.40;;
67037;SDS011;53940;53.204;6.590;2024-02-04T09:21:51;1.65;;;0.50;;
67037;SDS011;53940;53.204;6.590;2024-02-04T09:24:51;2.25;;;0.47;;
67037;SDS011;53940;53.204;6.590;2024-02-04T09:27:51;4.00;;;0.80;;
67037;SDS011;53940;53.204;6.590;2024-02-04T09:30:52;1.52;;;0.45;;
67037;SDS011;53940;53.204;6.590;2024-02-04T09:33:52;3.80;;;0.60;;
67037;SDS011;53940;53.204;6.590;2024-02-04T09:36:52;1.70;;;0.57;;
67037;SDS011;53940;53.204;6.590;2024-02-04T09:39:53;1.90;;;0.50;;
67037;SDS011;53940;53.204;6.590;2024-02-04T09:42:53;1.42;;;0.47;;
67037;SDS011;53940;53.204;6.590;2024-02-04T09:45:54;2.28;;;0.55;;
67037;SDS011;53940;53.204;6.590;2024-02-04T09:48:55;1.33;;;0.60;;
67037;SDS011;53940;53.204;6.590;2024-02-04T09:51:59;1.65;;;0.52;;
67037;SDS011;53940;53.204;6.590;2024-02-04T09:55:02;1.35;;;0.32;;
67037;SDS011;53940;53.204;6.590;2024-02-04T09:58:05;3.35;;;0.70;;
67037;SDS011;53940;53.204;6.590;2024-02-04T10:01:06;1.40;;;0.50;;
67037;SDS011;53940;53.204;6.590;2024-02-04T10:04:09;2.13;;;0.60;;
67037;SDS011;53940;53.204;6.590;2024-02-04T10:07:10;1.33;;;0.47;;
67037;SDS011;53940;53.204;6.590;2024-02-04T10:10:10;2.35;;;0.40;;
67037;SDS011;53940;53.204;6.590;2024-02-04T10:13:12;2.13;;;0.50;;
67037;SDS011;53940;53.204;6.590;2024-02-04T10:16:16;1.35;;;0.60;;
67037;SDS011;53940;53.204;6.590;2024-02-04T10:19:17;1.20;;;0.45;;
67037;SDS011;53940;53.204;6.590;2024-02-04T10:22:17;1.38;;;0.60;;
67037;SDS011;53940;53.204;6.590;2024-02-04T10:25:20;1.20;;;0.47;;
67037;SDS011;53940;53.204;6.590;2024-02-04T10:28:21;1.55;;;0.65;;
67037;SDS011;53940;53.204;6.590;2024-02-04T10:31:21;2.22;;;0.65;;
67037;SDS011;53940;53.204;6.590;2024-02-04T10:34:22;1.55;;;0.55;;
67037;SDS011;53940;53.204;6.590;2024-02-04T10:37:22;1.65;;;0.47;;
67037;SDS011;53940;53.204;6.590;2024-02-04T10:40:22;1.90;;;0.50;;
67037;SDS011;53940;53.204;6.590;2024-02-04T10:43:24;1.98;;;0.55;;
67037;SDS011;53940;53.204;6.590;2024-02-04T10:46:32;2.35;;;1.13;;
67037;SDS011;53940;53.204;6.590;2024-02-04T10:49:36;1.63;;;0.55;;
67037;SDS011;53940;53.204;6.590;2024-02-04T10:52:38;1.92;;;0.45;;
67037;SDS011;53940;53.204;6.590;2024-02-04T10:55:40;1.50;;;0.52;;
67037;SDS011;53940;53.204;6.590;2024-02-04T10:58:44;1.48;;;0.60;;
67037;SDS011;53940;53.204;6.590;2024-02-04T11:01:45;1.70;;;0.50;;
67037;SDS011;53940;53.204;6.590;2024-02-04T11:04:48;1.15;;;0.40;;
67037;SDS011;53940;53.204;6.590;2024-02-04T11:07:49;2.80;;;0.60;;
67037;SDS011;53940;53.204;6.590;2024-02-04T11:10:51;1.73;;;0.50;;
67037;SDS011;53940;53.204;6.590;2024-02-04T11:13:53;1.67;;;0.55;;
67037;SDS011;53940;53.204;6.590;2024-02-04T11:23:27;1.38;;;0.50;;
67037;SDS011;53940;53.204;6.590;2024-02-04T11:29:41;2.15;;;0.40;;
67037;SDS011;53940;53.204;6.590;2024-02-04T11:32:41;2.28;;;0.63;;
67037;SDS011;53940;53.204;6.590;2024-02-04T11:35:42;3.63;;;0.75;;
67037;SDS011;53940;53.204;6.590;2024-02-04T11:38:42;2.65;;;0.60;;
67037;SDS011;53940;53.204;6.590;2024-02-04T11:41:46;2.47;;;0.60;;
67037;SDS011;53940;53.204;6.590;2024-02-04T11:44:47;1.25;;;0.50;;
67037;SDS011;53940;53.204;6.590;2024-02-04T11:47:47;1.10;;;0.55;;
67037;SDS011;53940;53.204;6.590;2024-02-04T11:50:57;1.75;;;0.57;;
67037;SDS011;53940;53.204;6.590;2024-02-04T11:53:59;1.48;;;0.60;;
67037;SDS011;53940;53.204;6.590;2024-02-04T11:57:01;1.98;;;0.60;;
67037;SDS011;53940;53.204;6.590;2024-02-04T12:00:02;2.38;;;0.70;;
67037;SDS011;53940;53.204;6.590;2024-02-04T12:03:06;1.95;;;0.60;;
67037;SDS011;53940;53.204;6.590;2024-02-04T12:06:06;2.65;;;0.80;;
67037;SDS011;53940;53.204;6.590;2024-02-04T12:09:09;1.05;;;0.52;;
67037;SDS011;53940;53.204;6.590;2024-02-04T12:12:13;1.58;;;0.40;;
67037;SDS011;53940;53.204;6.590;2024-02-04T12:15:14;1.17;;;0.40;;
67037;SDS011;53940;53.204;6.590;2024-02-04T12:18:14;1.60;;;0.40;;
67037;SDS011;53940;53.204;6.590;2024-02-04T12:21:19;1.00;;;0.45;;
67037;SDS011;53940;53.204;6.590;2024-02-04T12:24:21;1.48;;;0.55;;
67037;SDS011;53940;53.204;6.590;2024-02-04T12:27:21;1.13;;;0.50;;
67037;SDS011;53940;53.204;6.590;2024-02-04T12:30:22;1.30;;;0.65;;
67037;SDS011;53940;53.204;6.590;2024-02-04T12:33:22;2.60;;;0.50;;
67037;SDS011;53940;53.204;6.590;2024-02-04T12:36:23;3.05;;;0.57;;
67037;SDS011;53940;53.204;6.590;2024-02-04T12:39:25;1.63;;;0.50;;
67037;SDS011;53940;53.204;6.590;2024-02-04T12:42:26;0.88;;;0.40;;
67037;SDS011;53940;53.204;6.590;2024-02-04T12:45:26;2.90;;;0.50;;
67037;SDS011;53940;53.204;6.590;2024-02-04T12:48:27;1.35;;;0.43;;
67037;SDS011;53940;53.204;6.590;2024-02-04T12:51:28;1.30;;;0.60;;
67037;SDS011;53940;53.204;6.590;2024-02-04T12:54:30;1.77;;;0.60;;
67037;SDS011;53940;53.204;6.590;2024-02-04T12:57:31;1.20;;;0.40;;
67037;SDS011;53940;53.204;6.590;2024-02-04T13:00:32;1.17;;;0.47;;
67037;SDS011;53940;53.204;6.590;2024-02-04T13:03:33;1.17;;;0.55;;
67037;SDS011;53940;53.204;6.590;2024-02-04T13:06:37;1.75;;;0.50;;
67037;SDS011;53940;53.204;6.590;2024-02-04T13:09:42;1.27;;;0.50;;
67037;SDS011;53940;53.204;6.590;2024-02-04T13:12:43;2.33;;;0.60;;
67037;SDS011;53940;53.204;6.590;2024-02-04T13:15:44;2.47;;;0.70;;
67037;SDS011;53940;53.204;6.590;2024-02-04T13:18:44;1.70;;;0.50;;
67037;SDS011;53940;53.204;6.590;2024-02-04T13:21:51;2.17;;;0.80;;
67037;SDS011;53940;53.204;6.590;2024-02-04T13:24:52;2.50;;;1.33;;
67037;SDS011;53940;53.204;6.590;2024-02-04T13:27:52;2.85;;;0.80;;
67037;SDS011;53940;53.204;6.590;2024-02-04T13:30:53;3.25;;;0.95;;
67037;SDS011;53940;53.204;6.590;2024-02-04T13:33:53;4.53;;;0.93;;
67037;SDS011;53940;53.204;6.590;2024-02-04T13:36:53;2.78;;;1.10;;
67037;SDS011;53940;53.204;6.590;2024-02-04T13:39:54;3.65;;;1.20;;
67037;SDS011;53940;53.204;6.590;2024-02-04T13:42:54;1.98;;;0.90;;
67037;SDS011;53940;53.204;6.590;2024-02-04T13:45:54;1.42;;;0.80;;
67037;SDS011;53940;53.204;6.590;2024-02-04T13:48:55;2.45;;;0.93;;
67037;SDS011;53940;53.204;6.590;2024-02-04T13:51:55;2.08;;;0.73;;
67037;SDS011;53940;53.204;6.590;2024-02-04T13:54:56;3.17;;;1.20;;
67037;SDS011;53940;53.204;6.590;2024-02-04T13:57:56;2.20;;;0.75;;
67037;SDS011;53940;53.204;6.590;2024-02-04T14:00:56;2.65;;;0.90;;
67037;SDS011;53940;53.204;6.590;2024-02-04T14:03:57;2.47;;;1.05;;
67037;SDS011;53940;53.204;6.590;2024-02-04T14:06:57;2.13;;;0.80;;
67037;SDS011;53940;53.204;6.590;2024-02-04T14:09:58;3.22;;;0.70;;
67037;SDS011;53940;53.204;6.590;2024-02-04T14:12:58;2.60;;;0.90;;
67037;SDS011;53940;53.204;6.590;2024-02-04T14:15:58;2.72;;;0.77;;
67037;SDS011;53940;53.204;6.590;2024-02-04T14:18:59;3.20;;;0.80;;
67037;SDS011;53940;53.204;6.590;2024-02-04T14:21:59;1.70;;;0.63;;
67037;SDS011;53940;53.204;6.590;2024-02-04T14:24:59;2.45;;;0.80;;
67037;SDS011;53940;53.204;6.590;2024-02-04T14:28:00;3.58;;;0.90;;
67037;SDS011;53940;53.204;6.590;2024-02-04T14:31:00;2.67;;;0.85;;
67037;SDS011;53940;53.204;6.590;2024-02-04T14:34:00;2.22;;;0.90;;
67037;SDS011;53940;53.204;6.590;2024-02-04T14:37:01;3.35;;;0.80;;
67037;SDS011;53940;53.204;6.590;2024-02-04T14:40:02;3.35;;;0.85;;
67037;SDS011;53940;53.204;6.590;2024-02-04T14:43:04;2.50;;;0.80;;
67037;SDS011;53940;53.204;6.590;2024-02-04T14:46:04;1.15;;;0.55;;
67037;SDS011;53940;53.204;6.590;2024-02-04T14:49:05;1.95;;;0.65;;
67037;SDS011;53940;53.204;6.590;2024-02-04T14:52:05;1.50;;;0.77;;
67037;SDS011;53940;53.204;6.590;2024-02-04T14:55:06;2.40;;;0.65;;
67037;SDS011;53940;53.204;6.590;2024-02-04T14:58:09;1.83;;;0.60;;
67037;SDS011;53940;53.204;6.590;2024-02-04T15:01:10;2.70;;;0.70;;
67037;SDS011;53940;53.204;6.590;2024-02-04T15:04:10;1.83;;;0.70;;
67037;SDS011;53940;53.204;6.590;2024-02-04T15:07:12;1.88;;;0.63;;
67037;SDS011;53940;53.204;6.590;2024-02-04T15:10:12;2.13;;;0.65;;
67037;SDS011;53940;53.204;6.590;2024-02-04T15:13:13;4.13;;;0.90;;
67037;SDS011;53940;53.204;6.590;2024-02-04T15:16:13;2.10;;;0.90;;
67037;SDS011;53940;53.204;6.590;2024-02-04T15:19:14;2.03;;;0.75;;
67037;SDS011;53940;53.204;6.590;2024-02-04T15:22:15;2.25;;;0.80;;
67037;SDS011;53940;53.204;6.590;2024-02-04T15:25:15;2.58;;;0.70;;
67037;SDS011;53940;53.204;6.590;2024-02-04T15:28:17;2.83;;;0.60;;
67037;SDS011;53940;53.204;6.590;2024-02-04T15:31:18;1.52;;;0.60;;
67037;SDS011;53940;53.204;6.590;2024-02-04T15:34:18;2.83;;;0.73;;
67037;SDS011;53940;53.204;6.590;2024-02-04T15:37:19;2.95;;;0.65;;
67037;SDS011;53940;53.204;6.590;2024-02-04T15:40:20;3.67;;;0.77;;
67037;SDS011;53940;53.204;6.590;2024-02-04T15:43:21;3.00;;;0.90;;
67037;SDS011;53940;53.204;6.590;2024-02-04T15:46:22;2.00;;;0.93;;
67037;SDS011;53940;53.204;6.590;2024-02-04T15:49:23;2.20;;;0.90;;
67037;SDS011;53940;53.204;6.590;2024-02-04T15:52:24;2.83;;;0.80;;
67037;SDS011;53940;53.204;6.590;2024-02-04T15:55:25;2.30;;;0.70;;
67037;SDS011;53940;53.204;6.590;2024-02-04T15:58:25;1.83;;;0.52;;
67037;SDS011;53940;53.204;6.590;2024-02-04T16:01:30;1.20;;;0.50;;
67037;SDS011;53940;53.204;6.590;2024-02-04T16:04:34;1.52;;;0.65;;
67037;SDS011;53940;53.204;6.590;2024-02-04T16:07:35;2.13;;;0.60;;
67037;SDS011;53940;53.204;6.590;2024-02-04T16:10:35;1.73;;;0.70;;
67037;SDS011;53940;53.204;6.590;2024-02-04T16:13:36;1.60;;;0.60;;
67037;SDS011;53940;53.204;6.590;2024-02-04T16:16:38;1.27;;;0.60;;
67037;SDS011;53940;53.204;6.590;2024-02-04T16:19:46;1.45;;;0.73;;
67037;SDS011;53940;53.204;6.590;2024-02-04T16:22:47;1.52;;;0.60;;
67037;SDS011;53940;53.204;6.590;2024-02-04T16:25:48;1.30;;;0.47;;
67037;SDS011;53940;53.204;6.590;2024-02-04T16:28:48;1.75;;;0.70;;
67037;SDS011;53940;53.204;6.590;2024-02-04T16:31:49;1.17;;;0.60;;
67037;SDS011;53940;53.204;6.590;2024-02-04T16:34:53;1.42;;;0.60;;
67037;SDS011;53940;53.204;6.590;2024-02-04T16:37:53;2.25;;;0.70;;
67037;SDS011;53940;53.204;6.590;2024-02-04T16:40:53;1.42;;;0.55;;
67037;SDS011;53940;53.204;6.590;2024-02-04T16:43:55;1.92;;;0.70;;
67037;SDS011;53940;53.204;6.590;2024-02-04T16:46:55;1.20;;;0.50;;
67037;SDS011;53940;53.204;6.590;2024-02-04T16:49:56;2.17;;;0.60;;
67037;SDS011;53940;53.204;6.590;2024-02-04T16:52:57;1.40;;;0.60;;
67037;SDS011;53940;53.204;6.590;2024-02-04T16:55:57;1.13;;;0.50;;
67037;SDS011;53940;53.204;6.590;2024-02-04T16:58:57;2.03;;;0.60;;
67037;SDS011;53940;53.204;6.590;2024-02-04T17:01:59;3.20;;;0.63;;
67037;SDS011;53940;53.204;6.590;2024-02-04T17:04:59;3.35;;;0.60;;
67037;SDS011;53940;53.204;6.590;2024-02-04T17:08:00;2.35;;;0.60;;
67037;SDS011;53940;53.204;6.590;2024-02-04T17:11:01;2.10;;;0.60;;
67037;SDS011;53940;53.204;6.590;2024-02-04T17:14:01;2.05;;;0.40;;
67037;SDS011;53940;53.204;6.590;2024-02-04T17:17:11;1.33;;;0.60;;
67037;SDS011;53940;53.204;6.590;2024-02-04T17:20:13;1.05;;;0.50;;
67037;SDS011;53940;53.204;6.590;2024-02-04T17:26:21;1.77;;;0.50;;
67037;SDS011;53940;53.204;6.590;2024-02-04T17:29:28;0.70;;;0.40;;
67037;SDS011;53940;53.204;6.590;2024-02-04T17:32:28;0.98;;;0.50;;
67037;SDS011;53940;53.204;6.590;2024-02-04T17:35:31;2.00;;;0.50;;
67037;SDS011;53940;53.204;6.590;2024-02-04T17:38:32;1.08;;;0.50;;
67037;SDS011;53940;53.204;6.590;2024-02-04T17:41:32;0.95;;;0.50;;
67037;SDS011;53940;53.204;6.590;2024-02-04T17:44:33;0.98;;;0.52;;
67037;SDS011;53940;53.204;6.590;2024-02-04T17:47:34;0.73;;;0.40;;
67037;SDS011;53940;53.204;6.590;2024-02-04T17:50:35;2.17;;;0.60;;
67037;SDS011;53940;53.204;6.590;2024-02-04T17:53:35;2.28;;;0.50;;
67037;SDS011;53940;53.204;6.590;2024-02-04T17:56:36;1.90;;;0.50;;
67037;SDS011;53940;53.204;6.590;2024-02-04T17:59:36;1.15;;;0.40;;
67037;SDS011;53940;53.204;6.590;2024-02-04T18:02:36;0.88;;;0.40;;
67037;SDS011;53940;53.204;6.590;2024-02-04T18:05:37;2.22;;;0.60;;
67037;SDS011;53940;53.204;6.590;2024-02-04T18:08:42;1.83;;;0.50;;
67037;SDS011;53940;53.204;6.590;2024-02-04T18:11:42;2.38;;;0.82;;
67037;SDS011;53940;53.204;6.590;2024-02-04T18:14:43;1.17;;;0.60;;
67037;SDS011;53940;53.204;6.590;2024-02-04T18:17:44;1.33;;;0.50;;
67037;SDS011;53940;53.204;6.590;2024-02-04T18:20:44;1.58;;;0.40;;
67037;SDS011;53940;53.204;6.590;2024-02-04T18:23:45;1.65;;;0.63;;